Aviation Digital Data Service (ADDS)

Output produced by METARs form (2312 UTC 23 March 2019)
found at http://www.aviationweather.gov/metar/data/
 
Forecast for: DRZA (AGADEZ SOUTH (MI, NE)
Text: TAF DRZA 231700Z 2318/2418 08010KT CAVOK
Forecast period: 1800 UTC 23 March 2019 to 1800 UTC 24 March 2019
Forecast type: FROM: standard forecast or significant change
Winds: from the E (80 degrees) at 12 MPH (10 knots; 5.1 m/s)
Visibility: 6 or more miles 10+ km)
Ceiling: unknown
Clouds: missing
Weather: NSW  (no significant weather)